Time;durP1;ratioP1;P1;durP2;ratioP2;P2;SDS_P1;SDS_P2;PMS_P1;PMS_P2;Temp;Humidity;BMP_temperature;BMP_pressure;BME280_temperature;BME280_humidity;BME280_pressure;Samples;Min_cycle;Max_cycle;Signal;HPM_P1;HPM_P2
2022/08/13 00:02:17;;;;;;;1999.90;999.90;;;17.30;99.90;;;;;;5065431;28;20071;-75
2022/08/13 00:04:59;;;;;;;1999.90;999.90;;;17.30;99.90;;;;;;5062148;28;20455;-75
2022/08/13 00:07:26;;;;;;;1999.90;999.90;;;17.30;99.90;;;;;;5049661;28;20443;-75
2022/08/13 00:09:53;;;;;;;1999.90;999.90;;;17.20;99.90;;;;;;5072351;28;20080;-75
2022/08/13 00:15:13;;;;;;;1999.90;999.90;;;17.10;99.90;;;;;;5051490;28;20044;-75
2022/08/13 00:17:39;;;;;;;1999.90;999.90;;;17.10;99.90;;;;;;5031655;28;20049;-75
2022/08/13 00:20:07;;;;;;;1999.90;999.90;;;17.00;99.90;;;;;;5035018;28;20127;-75
2022/08/13 00:22:33;;;;;;;1999.90;999.90;;;17.00;99.90;;;;;;5042381;28;20496;-75
2022/08/13 00:25:03;;;;;;;1999.90;999.90;;;17.00;99.90;;;;;;5065843;28;20493;-75
2022/08/13 00:27:29;;;;;;;1999.90;999.90;;;16.90;99.90;;;;;;5067025;28;20045;-75
2022/08/13 00:29:56;;;;;;;1999.90;999.90;;;16.80;99.90;;;;;;5067753;28;20048;-75
2022/08/13 00:32:26;;;;;;;1999.90;999.90;;;16.80;99.90;;;;;;5044095;28;20457;-75
2022/08/13 00:34:52;;;;;;;1999.90;999.90;;;16.80;99.90;;;;;;5046425;28;20043;-75
2022/08/13 00:37:18;;;;;;;1999.90;999.90;;;16.70;99.90;;;;;;5041312;28;20044;-75
2022/08/13 00:39:44;;;;;;;1999.90;999.90;;;16.70;99.90;;;;;;5066230;28;20048;-75
2022/08/13 00:42:10;;;;;;;1999.90;999.90;;;16.70;99.90;;;;;;5069818;28;20614;-75
2022/08/13 00:44:38;;;;;;;1999.90;999.90;;;16.60;99.90;;;;;;5066105;28;20072;-75
2022/08/13 00:49:49;;;;;;;1999.90;999.90;;;16.60;99.90;;;;;;5056337;28;20048;-75
2022/08/13 00:52:15;;;;;;;1999.90;999.90;;;16.50;99.90;;;;;;5051270;28;20190;-75
2022/08/13 00:54:41;;;;;;;1999.90;999.90;;;16.50;99.90;;;;;;5060642;28;20410;-72
2022/08/13 00:57:10;;;;;;;1999.90;999.90;;;16.50;99.90;;;;;;5062486;28;20052;-72
2022/08/13 00:59:36;;;;;;;1999.90;999.90;;;16.40;99.90;;;;;;5067672;28;20173;-72
2022/08/13 01:02:04;;;;;;;1999.90;999.90;;;16.40;99.90;;;;;;5066213;28;20525;-73
2022/08/13 01:04:31;;;;;;;1999.90;999.90;;;16.40;99.90;;;;;;5049383;28;20463;-72
2022/08/13 01:06:57;;;;;;;1999.90;999.90;;;16.30;99.90;;;;;;5049929;28;20083;-72
2022/08/13 01:09:29;;;;;;;1999.90;999.90;;;16.30;99.90;;;;;;5051364;28;20083;-72
2022/08/13 01:11:58;;;;;;;1999.90;999.90;;;16.30;99.90;;;;;;5067606;28;20109;-72
2022/08/13 01:14:27;;;;;;;1999.90;999.90;;;16.20;99.90;;;;;;5065413;28;20124;-72
2022/08/13 01:16:53;;;;;;;1999.90;999.90;;;16.20;99.90;;;;;;5067167;28;20473;-72
2022/08/13 01:19:20;;;;;;;1999.90;999.90;;;16.20;99.90;;;;;;5050497;28;20564;-72
2022/08/13 01:21:50;;;;;;;1999.90;999.90;;;16.20;99.90;;;;;;5071320;28;20036;-72
2022/08/13 01:24:16;;;;;;;1999.90;999.90;;;16.20;99.90;;;;;;5053590;28;20047;-72
2022/08/13 01:26:42;;;;;;;1999.90;999.90;;;16.10;99.90;;;;;;5047143;28;20047;-72
2022/08/13 01:29:09;;;;;;;1999.90;999.90;;;16.10;99.90;;;;;;5047124;28;20048;-72
2022/08/13 01:31:35;;;;;;;1999.90;999.90;;;16.00;99.90;;;;;;5067325;28;20083;-72
2022/08/13 01:34:03;;;;;;;1999.90;999.90;;;16.00;99.90;;;;;;5054405;28;20071;-72
2022/08/13 01:36:30;;;;;;;1999.90;999.90;;;16.00;99.90;;;;;;5047142;28;20036;-72
2022/08/13 01:39:04;;;;;;;1999.90;999.90;;;16.00;99.90;;;;;;5067596;28;20139;-72
2022/08/13 01:41:30;;;;;;;1999.90;999.90;;;16.00;99.90;;;;;;5050310;28;20448;-72
2022/08/13 01:44:04;;;;;;;1999.90;999.90;;;15.90;99.90;;;;;;5047821;28;20119;-72
2022/08/13 01:50:29;;;;;;;1999.90;999.90;;;15.90;99.90;;;;;;5065516;28;20035;-72
2022/08/13 01:52:06;;;;;;;1999.90;999.90;;;15.90;99.90;;;;;;5052743;28;20044;-72
2022/08/13 01:54:36;;;;;;;1999.90;999.90;;;15.90;99.90;;;;;;5046329;28;20049;-72
2022/08/13 01:57:06;;;;;;;1999.90;999.90;;;15.90;99.90;;;;;;5064667;28;20042;-72
2022/08/13 01:59:34;;;;;;;1999.90;999.90;;;15.90;99.90;;;;;;5054135;28;20538;-72
2022/08/13 02:02:02;;;;;;;1999.90;999.90;;;15.90;99.90;;;;;;5047762;28;20040;-72
2022/08/13 02:04:30;;;;;;;1999.90;999.90;;;15.80;99.90;;;;;;5044556;28;20122;-72
2022/08/13 02:06:59;;;;;;;1999.90;999.90;;;15.80;99.90;;;;;;5063163;28;20044;-72
2022/08/13 02:09:25;;;;;;;1999.90;999.90;;;15.80;99.90;;;;;;5080036;28;20044;-72
2022/08/13 02:11:51;;;;;;;1999.90;999.90;;;15.80;99.90;;;;;;5071832;28;20114;-72
2022/08/13 02:14:17;;;;;;;1999.90;999.90;;;15.80;99.90;;;;;;5066737;28;20094;-72
2022/08/13 02:16:42;;;;;;;1999.90;999.90;;;15.80;99.90;;;;;;5045959;28;20389;-72
2022/08/13 02:19:08;;;;;;;1999.90;999.90;;;15.80;99.90;;;;;;5049223;28;20082;-72
2022/08/13 02:21:37;;;;;;;1999.90;999.90;;;15.70;99.90;;;;;;5039222;28;20037;-72
2022/08/13 02:24:05;;;;;;;1999.90;999.90;;;15.70;99.90;;;;;;5076268;28;20037;-72
2022/08/13 02:26:32;;;;;;;1999.90;999.90;;;15.70;99.90;;;;;;5043021;28;20107;-72
2022/08/13 02:29:00;;;;;;;1999.90;999.90;;;15.70;99.90;;;;;;5033610;28;20099;-72
2022/08/13 02:31:28;;;;;;;1999.90;999.90;;;15.70;99.90;;;;;;5037682;28;20037;-72
2022/08/13 02:33:55;;;;;;;1999.90;999.90;;;15.70;99.90;;;;;;5066881;28;20553;-72
2022/08/13 02:36:23;;;;;;;1999.90;999.90;;;15.70;99.90;;;;;;5063177;28;20496;-72
2022/08/13 02:38:56;;;;;;;1999.90;999.90;;;15.70;99.90;;;;;;5069725;28;20059;-72
2022/08/13 02:41:42;;;;;;;1999.90;999.90;;;15.70;99.90;;;;;;5061870;28;20394;-72
2022/08/13 02:44:15;;;;;;;1999.90;999.90;;;15.70;99.90;;;;;;5051221;28;20037;-73
2022/08/13 02:46:43;;;;;;;1999.90;999.90;;;15.70;99.90;;;;;;5058273;28;20542;-72
2022/08/13 02:49:09;;;;;;;1999.90;999.90;;;15.70;99.90;;;;;;5069807;28;20778;-72
2022/08/13 02:51:37;;;;;;;1999.90;999.90;;;15.70;99.90;;;;;;5053947;28;20068;-72
2022/08/13 02:54:05;;;;;;;1999.90;999.90;;;15.70;99.90;;;;;;5050300;28;20040;-72
2022/08/13 02:56:32;;;;;;;1999.90;999.90;;;15.70;99.90;;;;;;5053256;28;20048;-72
2022/08/13 02:58:57;;;;;;;1999.90;999.90;;;15.60;99.90;;;;;;5070147;28;20041;-72
2022/08/13 03:01:24;;;;;;;1999.90;999.90;;;15.60;99.90;;;;;;5066247;28;20048;-72
2022/08/13 03:03:50;;;;;;;1999.90;999.90;;;15.60;99.90;;;;;;5065721;28;20420;-72
2022/08/13 03:06:19;;;;;;;1999.90;999.90;;;15.50;99.90;;;;;;5049520;28;20044;-72
2022/08/13 03:08:51;;;;;;;1999.90;999.90;;;15.50;99.90;;;;;;5054173;28;20044;-72
2022/08/13 03:11:18;;;;;;;1999.90;999.90;;;15.50;99.90;;;;;;5051451;28;20051;-72
2022/08/13 03:13:57;;;;;;;1999.90;999.90;;;15.50;99.90;;;;;;5052927;28;20036;-72
2022/08/13 03:16:26;;;;;;;1999.90;999.90;;;15.50;99.90;;;;;;5067303;28;20090;-72
2022/08/13 03:18:53;;;;;;;1999.90;999.90;;;15.50;99.90;;;;;;5092506;28;20052;-72
2022/08/13 03:21:27;;;;;;;1999.90;999.90;;;15.50;99.90;;;;;;5064540;28;20252;-72
2022/08/13 03:23:52;;;;;;;1999.90;999.90;;;15.50;99.90;;;;;;5074624;28;20092;-72
2022/08/13 03:26:20;;;;;;;1999.90;999.90;;;15.50;99.90;;;;;;5049490;28;20032;-72
2022/08/13 03:28:46;;;;;;;1999.90;999.90;;;15.40;99.90;;;;;;5052508;28;20071;-72
2022/08/13 03:31:12;;;;;;;1999.90;999.90;;;15.40;99.90;;;;;;5066071;28;20040;-72
2022/08/13 03:33:38;;;;;;;1999.90;999.90;;;15.40;99.90;;;;;;5040882;28;20037;-72
2022/08/13 03:36:05;;;;;;;1999.90;999.90;;;15.40;99.90;;;;;;5049585;28;20115;-72
2022/08/13 03:38:31;;;;;;;1999.90;999.90;;;15.40;99.90;;;;;;5080979;28;20536;-71
2022/08/13 03:41:08;;;;;;;1999.90;999.90;;;15.40;99.90;;;;;;5069235;28;20091;-72
2022/08/13 03:43:33;;;;;;;1999.90;999.90;;;15.30;99.90;;;;;;5083393;28;20508;-72
2022/08/13 03:45:59;;;;;;;1999.90;999.90;;;15.40;99.90;;;;;;5046152;28;20091;-72
2022/08/13 03:48:26;;;;;;;1999.90;999.90;;;15.40;99.90;;;;;;5052095;28;20473;-72
2022/08/13 03:50:52;;;;;;;1999.90;999.90;;;15.30;99.90;;;;;;5042908;28;20498;-72
2022/08/13 03:53:20;;;;;;;1999.90;999.90;;;15.30;99.90;;;;;;5053439;28;20047;-72
2022/08/13 03:55:47;;;;;;;1999.90;999.90;;;15.30;99.90;;;;;;5069834;28;20044;-72
2022/08/13 03:58:15;;;;;;;1999.90;999.90;;;15.30;99.90;;;;;;5060268;28;20393;-72
2022/08/13 04:00:47;;;;;;;1999.90;999.90;;;15.20;99.90;;;;;;5074468;28;20036;-72
2022/08/13 04:03:32;;;;;;;1999.90;999.90;;;15.20;99.90;;;;;;5063002;28;20044;-72
2022/08/13 04:06:01;;;;;;;1999.90;999.90;;;15.20;99.90;;;;;;5052579;28;20044;-72
2022/08/13 04:08:29;;;;;;;1999.90;999.90;;;15.10;99.90;;;;;;5040833;28;20041;-72
2022/08/13 04:10:56;;;;;;;1999.90;999.90;;;15.10;99.90;;;;;;5047901;28;20079;-72
2022/08/13 04:13:25;;;;;;;1999.90;999.90;;;15.00;99.90;;;;;;5059398;28;20488;-72
2022/08/13 04:15:51;;;;;;;1999.90;999.90;;;15.00;99.90;;;;;;5066518;28;20507;-72
2022/08/13 04:18:17;;;;;;;1999.90;999.90;;;15.00;99.90;;;;;;5051707;28;20051;-72
2022/08/13 04:20:52;;;;;;;1999.90;999.90;;;14.90;99.90;;;;;;5070705;28;20040;-72
2022/08/13 04:23:19;;;;;;;1999.90;999.90;;;14.90;99.90;;;;;;5032108;28;20052;-72
2022/08/13 04:25:46;;;;;;;1999.90;999.90;;;14.90;99.90;;;;;;5060425;28;20048;-72
2022/08/13 04:28:13;;;;;;;1999.90;999.90;;;14.90;99.90;;;;;;5050988;28;20508;-73
2022/08/13 04:30:41;;;;;;;1999.90;999.90;;;14.90;99.90;;;;;;5047303;28;20084;-73
2022/08/13 04:33:15;;;;;;;1999.90;999.90;;;14.90;99.90;;;;;;5053726;28;20450;-72
2022/08/13 04:35:41;;;;;;;1999.90;999.90;;;14.90;99.90;;;;;;5058612;28;20049;-72
2022/08/13 04:38:08;;;;;;;1999.90;999.90;;;14.90;99.90;;;;;;5065118;28;20075;-72
2022/08/13 04:40:38;;;;;;;1999.90;999.90;;;14.90;99.90;;;;;;5067203;28;20044;-72
2022/08/13 04:43:05;;;;;;;1999.90;999.90;;;14.90;99.90;;;;;;5049398;28;20111;-72
2022/08/13 04:45:33;;;;;;;1999.90;999.90;;;15.00;99.90;;;;;;5035988;28;20056;-72
2022/08/13 04:48:04;;;;;;;1999.90;999.90;;;15.00;99.90;;;;;;5081184;28;20041;-72
2022/08/13 04:50:34;;;;;;;1999.90;999.90;;;15.00;99.90;;;;;;5067254;28;20245;-72
2022/08/13 04:53:01;;;;;;;1999.90;999.90;;;15.00;99.90;;;;;;5063462;28;20041;-72
2022/08/13 04:55:27;;;;;;;1999.90;999.90;;;15.10;99.90;;;;;;5049989;28;20051;-71
2022/08/13 04:57:53;;;;;;;1999.90;999.90;;;15.10;99.90;;;;;;5052081;28;20043;-72
2022/08/13 05:00:20;;;;;;;1999.90;999.90;;;15.10;99.90;;;;;;5048842;28;20056;-72
2022/08/13 05:02:46;;;;;;;1999.90;999.90;;;15.20;99.90;;;;;;5074457;28;20044;-73
2022/08/13 05:05:12;;;;;;;1999.90;999.90;;;15.20;99.90;;;;;;5046403;28;20492;-72
2022/08/13 05:07:38;;;;;;;1999.90;999.90;;;15.20;99.90;;;;;;5044835;28;20646;-72
2022/08/13 05:10:08;;;;;;;1999.90;999.90;;;15.30;99.90;;;;;;5060916;28;20052;-72
2022/08/13 05:12:35;;;;;;;1999.90;999.90;;;15.30;99.90;;;;;;5050201;28;20044;-72
2022/08/13 05:15:02;;;;;;;1999.90;999.90;;;15.40;99.90;;;;;;5050164;28;20433;-72
2022/08/13 05:17:30;;;;;;;1999.90;999.90;;;15.50;99.90;;;;;;5058430;28;20048;-72
2022/08/13 05:19:56;;;;;;;1999.90;999.90;;;15.60;99.90;;;;;;5051461;28;20447;-72
2022/08/13 05:22:23;;;;;;;1999.90;999.90;;;15.60;99.90;;;;;;5073983;28;20040;-72
2022/08/13 05:24:50;;;;;;;1999.90;999.90;;;15.60;99.90;;;;;;5032543;28;20052;-72
2022/08/13 05:27:16;;;;;;;1999.90;999.90;;;15.70;99.90;;;;;;5039017;28;20049;-72
2022/08/13 05:29:43;;;;;;;1999.90;999.90;;;15.80;99.90;;;;;;5047070;28;20048;-72
2022/08/13 05:32:10;;;;;;;1999.90;999.90;;;15.90;99.90;;;;;;5067248;28;20093;-72
2022/08/13 05:34:37;;;;;;;1999.90;999.90;;;16.00;99.90;;;;;;5057891;28;20052;-72
2022/08/13 05:37:06;;;;;;;1999.90;999.90;;;16.10;99.90;;;;;;5050418;28;20439;-72
2022/08/13 05:39:33;;;;;;;1999.90;999.90;;;16.30;99.90;;;;;;5047044;28;20129;-72
2022/08/13 05:41:59;;;;;;;1999.90;999.90;;;16.60;99.90;;;;;;5060027;28;20044;-72
2022/08/13 05:44:25;;;;;;;1999.90;999.90;;;17.10;99.90;;;;;;5045840;28;20067;-72
2022/08/13 05:46:50;;;;;;;1999.90;999.90;;;17.30;99.90;;;;;;5054121;28;20477;-72
2022/08/13 05:49:17;;;;;;;1999.90;999.90;;;17.70;99.90;;;;;;5045463;28;20161;-72
2022/08/13 05:51:44;;;;;;;1999.90;999.90;;;18.10;99.90;;;;;;5066384;28;20067;-72
2022/08/13 05:54:10;;;;;;;1999.90;999.90;;;18.50;99.90;;;;;;5057215;28;20109;-73
2022/08/13 05:56:37;;;;;;;1999.90;999.90;;;18.50;99.90;;;;;;5060341;28;20446;-72
2022/08/13 06:03:22;;;;;;;1999.90;999.90;;;18.40;99.90;;;;;;5089829;28;20036;-72
2022/08/13 06:04:41;;;;;;;1999.90;999.90;;;18.30;99.90;;;;;;5059859;28;20127;-72
2022/08/13 06:07:13;;;;;;;1999.90;999.90;;;18.30;99.90;;;;;;5056415;28;20047;-72
2022/08/13 06:09:39;;;;;;;1999.90;999.90;;;18.30;99.90;;;;;;5040129;28;20048;-73
2022/08/13 06:12:05;;;;;;;1999.90;999.90;;;18.40;99.90;;;;;;5045994;28;20110;-72
2022/08/13 06:14:33;;;;;;;1999.90;999.90;;;18.40;99.90;;;;;;5056784;28;20049;-72
2022/08/13 06:16:59;;;;;;;1999.90;999.90;;;18.50;99.90;;;;;;5058691;28;20045;-73
2022/08/13 06:19:27;;;;;;;1999.90;999.90;;;18.50;99.90;;;;;;5061741;28;20086;-73
2022/08/13 06:21:56;;;;;;;1999.90;999.90;;;18.60;99.90;;;;;;5058475;28;20044;-72
2022/08/13 06:24:23;;;;;;;1999.90;999.90;;;18.70;99.90;;;;;;5075923;28;20062;-73
2022/08/13 06:26:50;;;;;;;1999.90;999.90;;;18.90;99.90;;;;;;5070223;28;20242;-72
2022/08/13 06:29:18;;;;;;;1999.90;999.90;;;19.50;99.90;;;;;;5067859;28;20048;-72
2022/08/13 06:31:46;;;;;;;1999.90;999.90;;;20.00;99.90;;;;;;5067365;28;20111;-72
2022/08/13 06:34:12;;;;;;;1999.90;999.90;;;20.40;99.90;;;;;;5042831;28;20047;-72
2022/08/13 06:36:38;;;;;;;1999.90;999.90;;;20.40;99.90;;;;;;5070322;28;20067;-72
2022/08/13 06:39:05;;;;;;;1999.90;999.90;;;20.40;99.90;;;;;;5057803;28;20144;-72
2022/08/13 06:41:33;;;;;;;1999.90;999.90;;;20.40;99.90;;;;;;5066442;28;20067;-72
2022/08/13 06:43:59;;;;;;;1999.90;999.90;;;20.30;99.90;;;;;;5054654;28;20090;-72
2022/08/13 06:46:27;;;;;;;1999.90;999.90;;;20.20;99.90;;;;;;5068671;28;20032;-72
2022/08/13 06:48:55;;;;;;;1999.90;999.90;;;20.20;99.90;;;;;;5053467;28;20096;-72
2022/08/13 06:51:21;;;;;;;1999.90;999.90;;;20.40;99.90;;;;;;5056520;28;20558;-72
2022/08/13 06:53:47;;;;;;;1999.90;999.90;;;20.60;99.90;;;;;;5052531;28;20036;-72
2022/08/13 06:56:17;;;;;;;1999.90;999.90;;;20.70;99.90;;;;;;5068964;28;20036;-72
2022/08/13 06:58:45;;;;;;;1999.90;999.90;;;21.40;99.90;;;;;;5039429;28;20040;-72
2022/08/13 07:01:19;;;;;;;1999.90;999.90;;;22.80;99.90;;;;;;5058755;28;20426;-72
2022/08/13 07:03:46;;;;;;;1999.90;999.90;;;24.00;99.90;;;;;;5066364;28;20036;-72
2022/08/13 07:06:17;;;;;;;1999.90;999.90;;;25.20;99.90;;;;;;5063879;28;20046;-73
2022/08/13 07:08:44;;;;;;;1999.90;999.90;;;26.00;99.90;;;;;;5063970;28;20454;-74
2022/08/13 07:11:22;;;;;;;1999.90;999.90;;;26.60;99.70;;;;;;5040354;28;20037;-73
2022/08/13 07:13:52;;;;;;;1999.90;999.90;;;26.40;98.90;;;;;;5041427;28;20045;-73
2022/08/13 07:16:21;;;;;;;1999.90;999.90;;;25.70;97.50;;;;;;5061739;28;20178;-74
2022/08/13 07:18:49;;;;;;;1999.90;999.90;;;25.60;98.10;;;;;;5047101;28;20036;-74
2022/08/13 07:21:21;;;;;;;1999.90;999.90;;;25.90;96.70;;;;;;5044093;28;20044;-74
2022/08/13 07:23:48;;;;;;;1999.90;999.90;;;25.80;96.80;;;;;;5043452;28;20044;-74
2022/08/13 07:26:16;;;;;;;1999.90;999.90;;;25.30;96.10;;;;;;5037444;28;20520;-76
2022/08/13 07:28:44;;;;;;;1999.90;999.90;;;24.80;96.70;;;;;;5057241;28;20045;-75
2022/08/13 07:31:10;;;;;;;1999.90;999.90;;;24.50;96.40;;;;;;5061263;28;20036;-75
2022/08/13 07:33:39;;;;;;;1999.90;999.90;;;24.20;96.70;;;;;;5038429;28;20037;-75
2022/08/13 07:36:08;;;;;;;1999.90;999.90;;;24.00;96.50;;;;;;5076376;28;20045;-75
2022/08/13 07:38:34;;;;;;;1999.90;999.90;;;23.90;97.50;;;;;;5057954;28;20065;-76
2022/08/13 07:41:02;;;;;;;1999.90;999.90;;;23.90;97.60;;;;;;5058823;28;20505;-75
2022/08/13 07:43:29;;;;;;;1999.90;999.90;;;23.80;97.50;;;;;;5037346;28;20045;-76
2022/08/13 07:46:07;;;;;;;1999.90;999.90;;;23.80;97.20;;;;;;5059330;28;20033;-75
2022/08/13 07:48:34;;;;;;;1999.90;999.90;;;23.80;96.60;;;;;;5037870;28;20036;-76
2022/08/13 07:51:02;;;;;;;1999.90;999.90;;;23.80;97.00;;;;;;5037689;28;20049;-76
2022/08/13 07:53:28;;;;;;;1999.90;999.90;;;23.80;96.90;;;;;;5090051;28;20068;-73
2022/08/13 07:55:55;;;;;;;1999.90;999.90;;;23.90;96.80;;;;;;5062134;28;20051;-75
2022/08/13 07:58:27;;;;;;;1999.90;999.90;;;24.00;96.80;;;;;;5064682;28;20044;-76
2022/08/13 08:00:57;;;;;;;1999.90;999.90;;;24.00;96.70;;;;;;5056893;28;20044;-77
2022/08/13 08:03:30;;;;;;;1999.90;999.90;;;24.10;96.70;;;;;;5053025;28;20033;-76
2022/08/13 08:05:57;;;;;;;1999.90;999.90;;;24.20;96.50;;;;;;5037419;28;20119;-75
2022/08/13 08:08:24;;;;;;;1999.90;999.90;;;24.20;95.90;;;;;;5042659;28;20138;-75
2022/08/13 08:10:51;;;;;;;1999.90;999.90;;;24.20;96.00;;;;;;5036712;28;20048;-76
2022/08/13 08:13:18;;;;;;;1999.90;999.90;;;24.40;95.70;;;;;;5039804;28;20143;-76
2022/08/13 08:15:44;;;;;;;1999.90;999.90;;;24.50;95.70;;;;;;5049379;28;20412;-75
2022/08/13 08:18:11;;;;;;;1999.90;999.90;;;24.50;95.90;;;;;;5059144;28;20048;-75
2022/08/13 08:20:37;;;;;;;1999.90;999.90;;;24.60;94.40;;;;;;5053890;28;20044;-75
2022/08/13 08:23:03;;;;;;;1999.90;999.90;;;24.70;94.20;;;;;;5041683;28;20036;-75
2022/08/13 08:25:29;;;;;;;1999.90;999.90;;;24.70;94.20;;;;;;5067671;28;20131;-75
2022/08/13 08:27:54;;;;;;;1999.90;999.90;;;24.80;93.60;;;;;;5066807;28;20120;-75
2022/08/13 08:30:20;;;;;;;1999.90;999.90;;;24.90;93.50;;;;;;5075627;28;20048;-74
2022/08/13 08:32:53;;;;;;;1999.90;999.90;;;25.00;93.60;;;;;;5052154;28;20079;-75
2022/08/13 08:35:22;;;;;;;;;;;25.00;93.10;;;;;;5042956;28;20059;-75
2022/08/13 08:43:32;;;;;;;1999.90;999.90;;;25.50;92.60;;;;;;5085781;28;20052;-76
2022/08/13 08:45:59;;;;;;;1999.90;999.90;;;25.70;92.20;;;;;;5062013;28;20040;-75
2022/08/13 08:48:29;;;;;;;1999.90;999.90;;;26.00;91.60;;;;;;5044432;28;20047;-75
2022/08/13 08:50:55;;;;;;;1999.90;999.90;;;26.70;90.90;;;;;;5049567;28;20548;-76
2022/08/13 08:53:22;;;;;;;1999.90;999.90;;;27.60;86.80;;;;;;5060713;28;20049;-75
2022/08/13 08:55:50;;;;;;;1999.90;999.90;;;28.50;84.40;;;;;;5048532;28;20447;-76
2022/08/13 08:58:18;;;;;;;1999.90;999.90;;;29.30;81.90;;;;;;5067096;28;20075;-75
2022/08/13 09:00:45;;;;;;;1999.90;999.90;;;29.90;77.20;;;;;;5039529;28;20051;-73
2022/08/13 09:03:17;;;;;;;1999.90;999.90;;;30.50;73.20;;;;;;5053727;28;20029;-73
2022/08/13 09:05:45;;;;;;;1999.90;999.90;;;31.00;71.80;;;;;;5047147;28;20170;-73
2022/08/13 09:08:13;;;;;;;1999.90;999.90;;;31.40;67.30;;;;;;5070770;28;20052;-73
2022/08/13 09:10:39;;;;;;;1999.90;999.90;;;31.70;66.90;;;;;;5051448;28;20045;-73
2022/08/13 09:13:05;;;;;;;1999.90;999.90;;;32.10;67.00;;;;;;5080899;28;20041;-73
2022/08/13 09:15:34;;;;;;;1999.90;999.90;;;32.50;65.50;;;;;;5035175;28;20048;-73
2022/08/13 09:18:02;;;;;;;1999.90;999.90;;;32.80;64.30;;;;;;5093358;28;20049;-73
2022/08/13 09:20:29;;;;;;;1999.90;999.90;;;32.90;60.50;;;;;;5057257;28;20041;-73
2022/08/13 09:23:12;;;;;;;1999.90;999.90;;;33.00;59.90;;;;;;5062860;28;20118;-73
2022/08/13 09:25:45;;;;;;;1999.90;999.90;;;33.10;58.60;;;;;;5049857;28;20115;-73
2022/08/13 09:28:11;;;;;;;1999.90;999.90;;;33.20;57.20;;;;;;5054217;28;20098;-73
2022/08/13 09:30:38;;;;;;;1999.90;999.90;;;33.30;56.20;;;;;;5054535;28;20040;-73
2022/08/13 09:33:04;;;;;;;1999.90;999.90;;;33.50;55.70;;;;;;5052200;28;20044;-73
2022/08/13 09:35:31;;;;;;;1999.90;999.90;;;33.60;54.80;;;;;;5074101;28;20040;-73
2022/08/13 09:37:58;;;;;;;1999.90;999.90;;;33.70;53.10;;;;;;5045322;28;20116;-73
2022/08/13 09:40:27;;;;;;;1999.90;999.90;;;33.60;53.50;;;;;;5029977;28;20170;-73
2022/08/13 09:42:58;;;;;;;1999.90;999.90;;;33.60;53.80;;;;;;5087926;28;20048;-73
2022/08/13 09:45:29;;;;;;;1999.90;999.90;;;33.60;53.50;;;;;;5051016;28;20102;-72
2022/08/13 09:47:55;;;;;;;1999.90;999.90;;;33.60;54.20;;;;;;5034094;28;20028;-72
2022/08/13 09:50:24;;;;;;;1999.90;999.90;;;33.60;51.60;;;;;;5042282;28;20044;-73
2022/08/13 09:52:52;;;;;;;1999.90;999.90;;;33.40;52.50;;;;;;5054397;28;20067;-73
2022/08/13 09:55:22;;;;;;;1999.90;999.90;;;33.50;51.80;;;;;;5059916;28;20048;-73
2022/08/13 09:58:08;;;;;;;1999.90;999.90;;;33.50;52.00;;;;;;5065186;28;20652;-72
2022/08/13 10:00:34;;;;;;;1999.90;999.90;;;33.30;51.20;;;;;;5065093;28;20656;-73
2022/08/13 10:03:07;;;;;;;1999.90;999.90;;;33.30;52.80;;;;;;5044265;28;20068;-73
2022/08/13 10:05:34;;;;;;;1999.90;999.90;;;33.30;51.50;;;;;;5036756;28;20136;-73
2022/08/13 10:08:05;;;;;;;1999.90;999.90;;;33.20;51.60;;;;;;5062443;28;20410;-72
2022/08/13 10:10:32;;;;;;;1999.90;999.90;;;33.10;50.70;;;;;;5058049;28;20049;-73
2022/08/13 10:12:59;;;;;;;1999.90;999.90;;;33.00;52.30;;;;;;5043800;28;20123;-73
2022/08/13 10:15:29;;;;;;;1999.90;999.90;;;33.00;52.20;;;;;;5043607;28;20052;-72
2022/08/13 10:17:57;;;;;;;1999.90;999.90;;;33.10;51.50;;;;;;5056615;28;20040;-73
2022/08/13 10:20:29;;;;;;;1999.90;999.90;;;33.00;50.50;;;;;;5036675;28;20049;-73
2022/08/13 10:22:56;;;;;;;1999.90;999.90;;;33.00;51.10;;;;;;5052808;28;20044;-73
2022/08/13 10:25:24;;;;;;;1999.90;999.90;;;32.90;50.50;;;;;;5066986;28;20048;-73
2022/08/13 10:27:50;;;;;;;1999.90;999.90;;;32.80;49.60;;;;;;5066312;28;20108;-73
2022/08/13 10:30:23;;;;;;;1999.90;999.90;;;32.70;50.70;;;;;;5036747;28;20052;-73
2022/08/13 10:32:50;;;;;;;1999.90;999.90;;;32.70;49.70;;;;;;5054086;28;20045;-73
2022/08/13 10:35:19;;;;;;;1999.90;999.90;;;32.70;50.60;;;;;;5065184;28;20049;-73
2022/08/13 10:37:46;;;;;;;1999.90;999.90;;;32.80;51.40;;;;;;5060876;28;20036;-73
2022/08/13 10:40:14;;;;;;;1999.90;999.90;;;32.80;49.70;;;;;;5052777;28;20484;-74
2022/08/13 10:42:44;;;;;;;1999.90;999.90;;;32.70;49.90;;;;;;5066876;28;20497;-73
2022/08/13 10:45:13;;;;;;;1999.90;999.90;;;32.70;49.50;;;;;;5053427;28;20043;-74
2022/08/13 10:47:47;;;;;;;1999.90;999.90;;;32.70;48.50;;;;;;5052572;28;20045;-73
2022/08/13 10:50:18;;;;;;;1999.90;999.90;;;32.70;47.20;;;;;;5048103;28;20043;-74
2022/08/13 10:52:44;;;;;;;1999.90;999.90;;;32.70;50.30;;;;;;5097327;28;20094;-73
2022/08/13 10:55:12;;;;;;;1999.90;999.90;;;32.80;48.10;;;;;;5050225;28;20048;-73
2022/08/13 10:57:43;;;;;;;1999.90;999.90;;;32.80;48.30;;;;;;5049376;28;20409;-73
2022/08/13 11:00:11;;;;;;;1999.90;999.90;;;32.70;49.10;;;;;;5067187;28;20428;-74
2022/08/13 11:02:37;;;;;;;1999.90;999.90;;;32.70;48.50;;;;;;5066064;28;20036;-74
2022/08/13 11:05:08;;;;;;;1999.90;999.90;;;32.60;45.80;;;;;;5062270;28;20115;-73
2022/08/13 11:07:36;;;;;;;1999.90;999.90;;;32.50;48.10;;;;;;5068837;28;20157;-73
2022/08/13 11:10:04;;;;;;;1999.90;999.90;;;32.50;49.70;;;;;;5053923;28;20040;-73
2022/08/13 11:12:30;;;;;;;1999.90;999.90;;;32.70;48.30;;;;;;5064867;28;20453;-74
2022/08/13 11:14:55;;;;;;;1999.90;999.90;;;32.80;48.20;;;;;;5042461;28;20083;-74
2022/08/13 11:17:22;;;;;;;1999.90;999.90;;;33.00;48.50;;;;;;5065962;28;20566;-74
2022/08/13 11:19:49;;;;;;;1999.90;999.90;;;33.00;47.80;;;;;;5047490;28;20139;-73
2022/08/13 11:22:16;;;;;;;1999.90;999.90;;;33.00;48.90;;;;;;5069566;28;20443;-74
2022/08/13 11:24:41;;;;;;;1999.90;999.90;;;33.10;48.10;;;;;;5055320;28;20119;-73
2022/08/13 11:27:07;;;;;;;1999.90;999.90;;;33.10;48.30;;;;;;5063568;28;20464;-74
2022/08/13 11:29:33;;;;;;;1999.90;999.90;;;33.20;48.10;;;;;;5083503;28;20040;-73
2022/08/13 11:31:59;;;;;;;1999.90;999.90;;;33.10;48.50;;;;;;5068087;28;20454;-74
2022/08/13 11:34:25;;;;;;;1999.90;999.90;;;33.20;47.50;;;;;;5048656;28;20049;-73
2022/08/13 11:36:54;;;;;;;1999.90;999.90;;;33.30;47.20;;;;;;5044669;28;20044;-73
2022/08/13 11:39:19;;;;;;;1999.90;999.90;;;33.30;48.20;;;;;;5065505;28;20143;-73
2022/08/13 11:41:45;;;;;;;1999.90;999.90;;;33.40;48.10;;;;;;5068802;28;20265;-74
2022/08/13 11:44:11;;;;;;;1999.90;999.90;;;33.40;48.40;;;;;;5043207;28;20041;-74
2022/08/13 11:46:38;;;;;;;1999.90;999.90;;;33.60;47.20;;;;;;5079408;28;20036;-73
2022/08/13 11:49:04;;;;;;;1999.90;999.90;;;33.50;46.70;;;;;;5048663;28;20496;-74
2022/08/13 11:51:31;;;;;;;1999.90;999.90;;;33.30;46.80;;;;;;5043701;28;20569;-74
2022/08/13 11:53:56;;;;;;;1999.90;999.90;;;32.90;45.20;;;;;;5057876;28;20033;-73
2022/08/13 11:56:22;;;;;;;1999.90;999.90;;;32.60;46.90;;;;;;5062875;28;20040;-73
2022/08/13 11:58:48;;;;;;;1999.90;999.90;;;32.50;47.90;;;;;;5043651;28;20067;-73
2022/08/13 12:01:18;;;;;;;1999.90;999.90;;;32.70;48.50;;;;;;5034133;28;20075;-73
2022/08/13 12:03:44;;;;;;;1999.90;999.90;;;32.90;48.40;;;;;;5037516;28;20634;-74
2022/08/13 12:06:10;;;;;;;1999.90;999.90;;;33.10;47.50;;;;;;5055754;28;20201;-73
2022/08/13 12:08:36;;;;;;;1999.90;999.90;;;33.30;48.60;;;;;;5088755;28;20520;-74
2022/08/13 12:11:03;;;;;;;1999.90;999.90;;;33.50;47.50;;;;;;5075245;28;20401;-74
2022/08/13 12:13:29;;;;;;;1999.90;999.90;;;33.70;47.50;;;;;;5059007;28;20057;-73
2022/08/13 12:15:55;;;;;;;1999.90;999.90;;;33.70;47.50;;;;;;5041092;28;20432;-74
2022/08/13 12:18:21;;;;;;;1999.90;999.90;;;33.80;46.50;;;;;;5041646;28;20048;-73
2022/08/13 12:20:48;;;;;;;1999.90;999.90;;;33.80;45.00;;;;;;5039830;28;20047;-73